createdAt,value
2022-08-01T00:00:00.094Z,12.00
2022-08-01T00:10:00.100Z,12.40
2022-08-01T00:20:00.149Z,9.00
2022-08-01T00:30:01.220Z,10.90
2022-08-01T00:40:00.138Z,9.70
2022-08-01T00:50:00.099Z,7.80
2022-08-01T01:00:00.087Z,7.90
2022-08-01T01:10:00.975Z,9.30
2022-08-01T01:20:00.122Z,10.90
2022-08-01T01:30:01.062Z,9.50
2022-08-01T01:40:00.241Z,10.90
2022-08-01T01:50:00.099Z,8.70
2022-08-01T02:00:00.114Z,9.00
2022-08-01T02:10:00.963Z,10.40
2022-08-01T02:20:00.156Z,7.70
2022-08-01T02:30:00.099Z,9.80
2022-08-01T02:40:00.131Z,8.50
2022-08-01T02:50:00.141Z,11.00
2022-08-01T03:00:00.097Z,9.90
2022-08-01T03:10:00.136Z,9.30
2022-08-01T03:20:00.105Z,10.70
2022-08-01T03:30:00.111Z,10.90
2022-08-01T03:40:00.158Z,9.70
2022-08-01T03:50:00.101Z,7.80
2022-08-01T04:00:00.127Z,9.00
2022-08-01T04:10:00.150Z,8.70
2022-08-01T04:20:00.131Z,11.40
2022-08-01T04:30:00.132Z,12.60
2022-08-01T04:40:01.216Z,12.50
2022-08-01T04:50:00.119Z,14.50
2022-08-01T05:00:00.098Z,13.80
2022-08-01T05:10:00.350Z,15.70
2022-08-01T05:20:00.127Z,12.00
2022-08-01T05:30:00.103Z,12.80
2022-08-01T05:40:01.458Z,12.20
2022-08-01T05:50:00.121Z,12.80
2022-08-01T06:00:00.117Z,10.10
2022-08-01T06:10:00.108Z,12.00
2022-08-01T06:20:00.135Z,12.40
2022-08-01T06:30:01.274Z,15.90
2022-08-01T06:40:01.175Z,14.00
2022-08-01T06:50:00.142Z,10.00
2022-08-01T07:00:00.142Z,9.10
2022-08-01T07:10:00.118Z,8.00
2022-08-01T07:20:00.116Z,8.20
2022-08-01T07:30:00.204Z,8.00
2022-08-01T07:40:00.173Z,11.60
2022-08-01T07:50:00.092Z,6.10
2022-08-01T08:00:00.145Z,10.20
2022-08-01T08:10:00.091Z,8.20
2022-08-01T08:20:00.089Z,9.30
2022-08-01T08:30:00.154Z,8.80
2022-08-01T08:40:00.799Z,8.90
2022-08-01T08:50:00.090Z,11.70
2022-08-01T09:00:00.118Z,8.80
2022-08-01T09:10:00.130Z,7.50
2022-08-01T09:20:00.115Z,6.60
2022-08-01T09:30:00.878Z,6.50
2022-08-01T09:40:00.121Z,5.40
2022-08-01T09:50:00.284Z,4.80
2022-08-01T10:00:01.204Z,6.00
2022-08-01T10:10:00.100Z,5.20
2022-08-01T10:20:00.117Z,4.60
2022-08-01T10:30:06.926Z,4.20
2022-08-01T10:40:27.508Z,6.10
2022-08-01T10:50:00.112Z,6.70
2022-08-01T11:00:01.345Z,11.30
2022-08-01T11:10:00.114Z,8.70
2022-08-01T11:20:01.285Z,5.20
2022-08-01T11:30:00.110Z,6.30
2022-08-01T11:40:00.107Z,15.40
2022-08-01T11:50:01.669Z,9.10
2022-08-01T12:00:03.045Z,9.70
2022-08-01T12:10:00.127Z,12.90
2022-08-01T12:20:00.158Z,42.20
2022-08-01T12:30:00.104Z,66.30
2022-08-01T12:40:00.090Z,142.00
2022-08-01T12:50:00.146Z,169.80
2022-08-01T13:00:00.134Z,702.40
2022-08-01T13:10:00.138Z,701.30
2022-08-01T13:20:01.030Z,768.50
2022-08-01T13:30:00.100Z,376.60
2022-08-01T13:40:00.149Z,187.70
2022-08-01T13:50:00.215Z,139.50
2022-08-01T14:00:00.148Z,337.60
2022-08-01T14:10:04.640Z,315.40
2022-08-01T14:20:00.113Z,494.80
2022-08-01T14:30:03.350Z,740.80
2022-08-01T14:40:00.129Z,737.00
2022-08-01T14:50:00.141Z,748.50
2022-08-01T15:00:00.258Z,750.50
2022-08-01T15:10:00.185Z,752.60
2022-08-01T15:20:00.121Z,764.50
2022-08-01T15:30:00.144Z,609.90
2022-08-01T15:40:00.162Z,449.90
2022-08-01T15:50:00.114Z,414.20
2022-08-01T16:00:00.109Z,382.00
2022-08-01T16:10:00.148Z,247.40
2022-08-01T16:20:00.098Z,302.70
2022-08-01T16:30:00.109Z,350.40
2022-08-01T16:40:01.119Z,258.40
2022-08-01T16:50:00.085Z,198.00
2022-08-01T17:00:00.111Z,276.90
2022-08-01T17:10:00.128Z,183.10
2022-08-01T17:20:00.095Z,172.30
2022-08-01T17:30:01.244Z,131.50
2022-08-01T17:40:01.554Z,148.80
2022-08-01T17:50:00.169Z,139.80
2022-08-01T18:00:00.138Z,59.90
2022-08-01T18:10:00.971Z,46.60
2022-08-01T18:20:00.120Z,63.30
2022-08-01T18:30:00.105Z,48.20
2022-08-01T18:40:00.142Z,44.10
2022-08-01T18:50:00.155Z,41.20
2022-08-01T19:00:00.141Z,22.90
2022-08-01T19:10:00.113Z,19.80
2022-08-01T19:20:02.968Z,19.00
2022-08-01T19:30:00.140Z,18.70
2022-08-01T19:40:00.146Z,22.00
2022-08-01T19:50:00.133Z,19.50
2022-08-01T20:00:00.155Z,20.80
2022-08-01T20:10:00.121Z,18.70
2022-08-01T20:20:00.308Z,26.90
2022-08-01T20:30:00.119Z,20.60
2022-08-01T20:40:00.126Z,17.30
2022-08-01T20:50:00.143Z,16.20
2022-08-01T21:00:00.108Z,19.60
2022-08-01T21:10:00.159Z,22.20
2022-08-01T21:20:00.101Z,20.10
2022-08-01T21:30:00.118Z,19.00
2022-08-01T21:40:00.121Z,17.20
2022-08-01T21:50:00.086Z,21.60
2022-08-01T22:00:00.129Z,23.50
2022-08-01T22:10:00.136Z,21.50
2022-08-01T22:20:00.109Z,18.00
2022-08-01T22:30:00.116Z,13.00
2022-08-01T22:40:00.136Z,21.70
2022-08-01T22:50:00.084Z,17.60
2022-08-01T23:00:00.116Z,21.30
2022-08-01T23:10:00.144Z,12.60
2022-08-01T23:20:00.127Z,12.50
2022-08-01T23:30:00.129Z,20.30
2022-08-01T23:40:00.137Z,14.10
2022-08-01T23:50:00.132Z,17.00
